Time;durP1;ratioP1;P1;durP2;ratioP2;P2;SDS_P1;SDS_P2;PMS_P1;PMS_P2;Temp;Humidity;BMP_temperature;BMP_pressure;BME280_temperature;BME280_humidity;BME280_pressure;Samples;Min_cycle;Max_cycle;Signal;HPM_P1;HPM_P2
2021/08/04 00:01:59;;;;;;;5.45;3.63;;;13.10;99.90;;;;;;5126702;27;20038;-77
2021/08/04 00:04:25;;;;;;;5.00;3.75;;;13.10;99.90;;;;;;5124900;27;20447;-77
2021/08/04 00:06:50;;;;;;;5.75;3.88;;;13.20;99.90;;;;;;5117642;27;20072;-77
2021/08/04 00:09:16;;;;;;;6.18;3.75;;;13.20;99.90;;;;;;5127574;27;20035;-77
2021/08/04 00:11:42;;;;;;;8.43;4.13;;;13.10;99.90;;;;;;5127454;27;20471;-77
2021/08/04 00:14:08;;;;;;;6.82;4.15;;;13.10;99.90;;;;;;5130431;27;20031;-77
2021/08/04 00:16:34;;;;;;;5.90;3.85;;;13.10;99.90;;;;;;5127986;27;20407;-77
2021/08/04 00:19:00;;;;;;;;;;;13.00;99.90;;;;;;5121695;27;20066;-77
2021/08/04 00:21:26;;;;;;;4.90;3.60;;;13.00;99.90;;;;;;5129746;27;19962;-78
2021/08/04 00:23:52;;;;;;;5.18;3.50;;;12.90;99.90;;;;;;5131679;27;20031;-77
2021/08/04 00:26:18;;;;;;;5.82;3.47;;;12.90;99.90;;;;;;5124814;27;20059;-77
2021/08/04 00:28:43;;;;;;;6.13;4.03;;;12.80;99.90;;;;;;5117904;27;20111;-76
2021/08/04 00:31:09;;;;;;;5.75;3.60;;;12.70;99.90;;;;;;5121713;27;20047;-78
2021/08/04 00:33:35;;;;;;;5.82;3.67;;;12.70;99.90;;;;;;5122374;27;20055;-78
2021/08/04 00:36:01;;;;;;;6.18;3.65;;;12.70;99.90;;;;;;5128990;27;20468;-78
2021/08/04 00:38:27;;;;;;;5.68;3.40;;;12.70;99.90;;;;;;5111619;27;20049;-77
2021/08/04 00:40:53;;;;;;;5.03;3.55;;;12.70;99.90;;;;;;5129838;27;20399;-78
2021/08/04 00:43:18;;;;;;;6.43;3.92;;;12.80;99.90;;;;;;5119113;27;20101;-78
2021/08/04 00:45:44;;;;;;;6.57;4.20;;;12.90;99.90;;;;;;5125065;27;20038;-78
2021/08/04 00:48:10;;;;;;;6.05;4.03;;;12.90;99.90;;;;;;5116283;27;20036;-78
2021/08/04 00:50:48;;;;;;;6.63;3.90;;;13.00;99.90;;;;;;5129146;27;20051;-77
2021/08/04 00:53:17;;;;;;;;;;;13.00;99.90;;;;;;5129072;27;20035;-77
2021/08/04 00:55:42;;;;;;;6.88;4.50;;;13.00;99.90;;;;;;5123760;27;19919;-76
2021/08/04 00:58:08;;;;;;;7.80;4.25;;;13.00;99.90;;;;;;5121943;27;20097;-77
2021/08/04 01:00:36;;;;;;;5.82;3.90;;;13.10;99.90;;;;;;5124926;27;20032;-77
2021/08/04 01:03:06;;;;;;;6.78;4.10;;;13.10;99.90;;;;;;5122720;27;20043;-77
2021/08/04 01:05:44;;;;;;;7.80;4.20;;;13.10;99.90;;;;;;5128532;27;20315;-77
2021/08/04 01:08:20;;;;;;;5.13;3.80;;;13.20;99.90;;;;;;5122842;27;20096;-77
2021/08/04 01:10:52;;;;;;;8.95;3.95;;;13.20;99.90;;;;;;5124284;27;20483;-77
2021/08/04 01:13:24;;;;;;;5.38;3.30;;;13.20;99.90;;;;;;5121054;27;20032;-77
2021/08/04 01:16:05;;;;;;;6.03;3.78;;;13.20;99.90;;;;;;5128229;27;20130;-78
2021/08/04 01:18:59;;;;;;;5.30;3.60;;;13.30;99.90;;;;;;5111653;28;20399;-77
2021/08/04 01:21:52;;;;;;;6.00;4.00;;;13.30;99.90;;;;;;5123725;27;20114;-77
2021/08/04 01:24:24;;;;;;;5.80;3.80;;;13.30;99.90;;;;;;5120815;27;20041;-77
2021/08/04 01:26:51;;;;;;;4.95;3.53;;;13.30;99.90;;;;;;5124868;27;20477;-77
2021/08/04 01:29:19;;;;;;;6.03;3.38;;;13.30;99.90;;;;;;5137191;27;20042;-77
2021/08/04 01:31:48;;;;;;;6.10;3.55;;;13.30;99.90;;;;;;5136220;27;20123;-78
2021/08/04 01:34:17;;;;;;;4.63;3.25;;;13.40;99.90;;;;;;5124423;27;20468;-77
2021/08/04 01:36:44;;;;;;;6.93;3.03;;;13.40;99.90;;;;;;5129459;27;20042;-77
2021/08/04 01:39:10;;;;;;;5.18;3.28;;;13.40;99.90;;;;;;5132699;27;20050;-77
2021/08/04 01:41:37;;;;;;;;;;;13.40;99.90;;;;;;5130251;27;20060;-77
2021/08/04 01:44:05;;;;;;;4.97;3.20;;;13.40;99.90;;;;;;5125295;27;20303;-77
2021/08/04 01:46:31;;;;;;;4.28;2.83;;;13.40;99.90;;;;;;5133457;27;20031;-76
2021/08/04 01:49:01;;;;;;;4.07;3.08;;;13.40;99.90;;;;;;5132235;27;20039;-77
2021/08/04 01:51:28;;;;;;;3.90;3.00;;;13.40;99.90;;;;;;5114406;27;20047;-77
2021/08/04 01:53:56;;;;;;;5.00;2.97;;;13.40;99.90;;;;;;5125716;27;20038;-77
2021/08/04 01:56:22;;;;;;;4.43;3.05;;;13.40;99.90;;;;;;5125609;27;20035;-77
2021/08/04 01:58:47;;;;;;;4.63;2.95;;;13.40;99.90;;;;;;5133054;27;20503;-78
2021/08/04 02:01:13;;;;;;;4.80;2.90;;;13.40;99.90;;;;;;5133403;27;20035;-78
2021/08/04 02:03:46;;;;;;;4.53;2.90;;;13.40;99.90;;;;;;5123785;27;20108;-77
2021/08/04 02:06:30;;;;;;;3.95;2.75;;;13.40;99.90;;;;;;5103766;27;20504;-78
2021/08/04 02:09:13;;;;;;;4.85;2.70;;;13.40;99.90;;;;;;5130190;27;20475;-78
2021/08/04 02:11:54;;;;;;;3.50;2.35;;;13.40;99.90;;;;;;5133162;27;20056;-78
2021/08/04 02:14:56;;;;;;;4.22;2.85;;;13.40;99.90;;;;;;5119866;27;20036;-78
2021/08/04 02:17:36;;;;;;;5.80;3.63;;;13.40;99.90;;;;;;5127035;27;20023;-76
2021/08/04 02:20:44;;;;;;;3.67;2.63;;;13.40;99.90;;;;;;5132535;27;20050;-78
2021/08/04 02:23:13;;;;;;;4.57;2.80;;;13.50;99.90;;;;;;5115319;27;20058;-76
2021/08/04 02:25:47;;;;;;;4.32;2.58;;;13.50;99.90;;;;;;5120716;27;20095;-77
2021/08/04 02:28:37;;;;;;;3.60;2.45;;;13.50;99.90;;;;;;5125155;27;20044;-77
2021/08/04 02:31:06;;;;;;;4.32;2.58;;;13.60;99.90;;;;;;5116920;27;20565;-78
2021/08/04 02:33:32;;;;;;;3.67;2.53;;;13.50;99.90;;;;;;5127019;27;20496;-77
2021/08/04 02:35:59;;;;;;;4.90;2.92;;;13.50;99.90;;;;;;5123995;27;20054;-77
2021/08/04 02:38:25;;;;;;;3.70;2.45;;;13.60;99.90;;;;;;5127008;27;20078;-78
2021/08/04 02:40:51;;;;;;;;;;;13.60;99.90;;;;;;5130268;27;20432;-79
2021/08/04 02:43:19;;;;;;;5.38;2.70;;;13.60;99.90;;;;;;5128278;27;19922;-78
2021/08/04 02:45:45;;;;;;;4.03;2.70;;;13.70;99.90;;;;;;5118385;27;20039;-77
2021/08/04 02:48:13;;;;;;;6.43;3.20;;;13.70;99.90;;;;;;5126449;27;20558;-79
2021/08/04 02:50:46;;;;;;;4.82;3.30;;;13.70;99.90;;;;;;5134674;27;20047;-77
2021/08/04 02:53:19;;;;;;;4.45;3.08;;;13.80;99.90;;;;;;5128735;27;20070;-77
2021/08/04 02:55:48;;;;;;;4.68;3.22;;;13.80;99.90;;;;;;5119200;27;20038;-78
2021/08/04 02:58:13;;;;;;;6.30;3.08;;;13.80;99.90;;;;;;5129672;27;20042;-78
2021/08/04 03:00:40;;;;;;;5.90;3.17;;;13.80;99.90;;;;;;5121215;27;20106;-78
2021/08/04 03:03:05;;;;;;;;;;;13.80;99.90;;;;;;5131981;27;20392;-77
2021/08/04 03:05:31;;;;;;;5.40;3.08;;;13.80;99.90;;;;;;5126361;27;19922;-77
2021/08/04 03:07:58;;;;;;;5.50;3.60;;;13.80;99.90;;;;;;5129002;27;20061;-78
2021/08/04 03:10:24;;;;;;;8.10;3.60;;;13.80;99.90;;;;;;5137215;27;20051;-77
2021/08/04 03:12:50;;;;;;;;;;;13.80;99.90;;;;;;5114709;28;20035;-77
2021/08/04 03:15:15;;;;;;;4.80;3.42;;;13.70;99.90;;;;;;5121127;27;19919;-78
2021/08/04 03:17:41;;;;;;;4.50;3.08;;;13.70;99.90;;;;;;5125250;28;20031;-77
2021/08/04 03:20:08;;;;;;;4.60;2.88;;;13.70;99.90;;;;;;5132594;27;20396;-77
2021/08/04 03:22:34;;;;;;;4.55;2.88;;;13.70;99.90;;;;;;5130718;28;20035;-78
2021/08/04 03:25:00;;;;;;;5.30;3.38;;;13.70;99.90;;;;;;5130717;28;20043;-77
2021/08/04 03:27:26;;;;;;;;;;;13.70;99.90;;;;;;5129142;28;20164;-78
2021/08/04 03:29:52;;;;;;;4.68;3.17;;;13.70;99.90;;;;;;5131959;27;19920;-79
2021/08/04 03:32:17;;;;;;;4.53;3.08;;;13.70;99.90;;;;;;5128766;28;20399;-80
2021/08/04 03:34:43;;;;;;;5.38;2.75;;;13.70;99.90;;;;;;5117486;28;20212;-80
2021/08/04 03:37:09;;;;;;;;;;;13.70;99.90;;;;;;5130746;28;20438;-78
2021/08/04 03:39:35;;;;;;;4.60;3.10;;;13.70;99.90;;;;;;5131224;28;19964;-79
2021/08/04 03:42:01;;;;;;;4.72;3.13;;;13.70;99.90;;;;;;5128868;28;20404;-79
2021/08/04 03:44:27;;;;;;;4.35;2.80;;;13.70;99.90;;;;;;5117662;28;20039;-79
2021/08/04 03:46:52;;;;;;;6.15;3.22;;;13.70;99.90;;;;;;5126430;28;20050;-79
2021/08/04 03:49:18;;;;;;;4.50;2.80;;;13.70;99.90;;;;;;5131906;27;20483;-79
2021/08/04 03:51:45;;;;;;;4.45;3.00;;;13.70;99.90;;;;;;5123912;28;20554;-78
2021/08/04 03:54:12;;;;;;;4.70;3.08;;;13.70;99.90;;;;;;5116192;28;20032;-77
2021/08/04 03:56:37;;;;;;;4.20;2.90;;;13.70;99.90;;;;;;5124756;28;20469;-78
2021/08/04 03:59:03;;;;;;;4.32;2.60;;;13.70;99.90;;;;;;5094202;28;20053;-77
2021/08/04 04:01:29;;;;;;;5.43;2.90;;;13.70;99.90;;;;;;5123580;28;20065;-79
2021/08/04 04:03:56;;;;;;;;;;;13.80;99.90;;;;;;5109696;28;20039;-79
2021/08/04 04:06:22;;;;;;;;;;;13.80;99.90;;;;;;5127102;28;19919;-78
2021/08/04 04:08:48;;;;;;;4.78;3.10;;;13.70;99.90;;;;;;5116598;28;20327;-78
2021/08/04 04:11:17;;;;;;;4.75;3.08;;;13.80;99.90;;;;;;5116410;28;20042;-77
2021/08/04 04:13:43;;;;;;;5.38;3.00;;;13.80;99.90;;;;;;5129860;27;20023;-77
2021/08/04 04:16:09;;;;;;;;;;;13.80;99.90;;;;;;5131331;28;20035;-78
2021/08/04 04:18:35;;;;;;;5.45;3.17;;;13.80;99.90;;;;;;5114250;27;19979;-77
2021/08/04 04:21:00;;;;;;;4.82;3.30;;;13.80;99.90;;;;;;5122233;27;20494;-76
2021/08/04 04:23:26;;;;;;;5.93;3.60;;;13.90;99.90;;;;;;5115512;27;20399;-76
2021/08/04 04:25:52;;;;;;;5.68;3.33;;;13.90;99.90;;;;;;5122715;27;20409;-77
2021/08/04 04:28:18;;;;;;;5.40;3.42;;;13.90;99.90;;;;;;5119772;27;20036;-78
2021/08/04 04:30:43;;;;;;;4.75;3.17;;;13.90;99.90;;;;;;5133532;27;20508;-78
2021/08/04 04:33:09;;;;;;;5.32;3.40;;;13.90;99.90;;;;;;5118148;27;20039;-79
2021/08/04 04:35:35;;;;;;;;;;;13.90;99.90;;;;;;5136374;27;20039;-79
2021/08/04 04:38:01;;;;;;;5.05;2.95;;;13.90;99.90;;;;;;5137101;27;20378;-80
2021/08/04 04:40:26;;;;;;;5.97;3.40;;;13.90;99.90;;;;;;5135188;27;20055;-79
2021/08/04 04:42:52;;;;;;;;;;;13.90;99.90;;;;;;5134375;27;20039;-79
2021/08/04 04:45:18;;;;;;;5.93;3.42;;;14.00;99.90;;;;;;5122599;27;19915;-76
2021/08/04 04:47:43;;;;;;;4.57;3.05;;;13.90;99.90;;;;;;5133205;27;20028;-74
2021/08/04 04:50:10;;;;;;;5.22;3.08;;;14.00;99.90;;;;;;5131988;27;20043;-77
2021/08/04 04:52:43;;;;;;;3.95;2.85;;;14.00;99.90;;;;;;5135155;27;20035;-79
2021/08/04 04:55:10;;;;;;;4.35;2.80;;;14.00;99.90;;;;;;5126348;27;20118;-79
2021/08/04 04:57:36;;;;;;;4.63;3.03;;;14.10;99.90;;;;;;5132714;27;20051;-79
2021/08/04 05:00:05;;;;;;;5.05;2.83;;;14.10;99.90;;;;;;5116029;27;20073;-79
2021/08/04 05:02:30;;;;;;;5.00;2.97;;;14.10;99.90;;;;;;5122026;27;20047;-79
2021/08/04 05:04:58;;;;;;;4.15;2.58;;;14.20;99.90;;;;;;5121286;27;20039;-79
2021/08/04 05:07:25;;;;;;;5.07;3.42;;;14.20;99.90;;;;;;5122057;27;20097;-79
2021/08/04 05:09:50;;;;;;;4.18;2.67;;;14.20;99.90;;;;;;5123444;27;20042;-79
2021/08/04 05:12:16;;;;;;;5.90;3.50;;;14.20;99.90;;;;;;5127329;27;20042;-79
2021/08/04 05:14:42;;;;;;;5.70;3.35;;;14.30;99.90;;;;;;5109550;28;20092;-79
2021/08/04 05:17:12;;;;;;;5.47;3.17;;;14.30;99.90;;;;;;5120397;27;20459;-79
2021/08/04 05:19:38;;;;;;;4.43;2.70;;;14.30;99.90;;;;;;5116097;27;20039;-79
2021/08/04 05:22:04;;;;;;;5.32;2.97;;;14.30;99.90;;;;;;5120725;27;20472;-79
2021/08/04 05:24:30;;;;;;;5.30;2.50;;;14.30;99.90;;;;;;5131143;27;20035;-79
2021/08/04 05:26:56;;;;;;;4.18;2.80;;;14.40;99.90;;;;;;5123852;27;20043;-79
2021/08/04 05:29:22;;;;;;;3.92;2.30;;;14.40;99.90;;;;;;5116452;27;20035;-79
2021/08/04 05:31:47;;;;;;;;;;;14.50;99.90;;;;;;5120747;27;20057;-79
2021/08/04 05:34:13;;;;;;;3.97;2.78;;;14.50;99.90;;;;;;5124703;27;19916;-79
2021/08/04 05:36:39;;;;;;;3.88;2.50;;;14.50;99.90;;;;;;5121507;27;20039;-79
2021/08/04 05:39:05;;;;;;;;;;;14.50;99.90;;;;;;5126327;27;20141;-79
2021/08/04 05:41:30;;;;;;;3.47;2.42;;;14.60;99.90;;;;;;5121029;27;19922;-79
2021/08/04 05:43:56;;;;;;;;;;;14.60;99.90;;;;;;5128297;27;20035;-79
2021/08/04 05:46:22;;;;;;;5.25;2.63;;;14.70;99.90;;;;;;5125813;27;20372;-79
2021/08/04 05:48:48;;;;;;;;;;;14.80;99.90;;;;;;5127160;27;20031;-79
2021/08/04 05:51:13;;;;;;;3.67;2.28;;;14.80;99.90;;;;;;5126282;27;19919;-79
2021/08/04 05:53:40;;;;;;;4.10;2.40;;;14.90;99.90;;;;;;5129398;27;20429;-79
2021/08/04 05:56:06;;;;;;;4.65;2.65;;;14.90;99.90;;;;;;5114472;27;20074;-78
2021/08/04 05:58:33;;;;;;;5.95;2.42;;;14.90;99.90;;;;;;5132246;27;20381;-79
2021/08/04 06:00:59;;;;;;;;;;;15.00;99.90;;;;;;5121344;27;20035;-79
2021/08/04 06:03:25;;;;;;;4.18;2.30;;;15.00;99.90;;;;;;5131486;27;19938;-78
2021/08/04 06:05:51;;;;;;;;;;;15.00;99.90;;;;;;5122601;27;20463;-79
2021/08/04 06:08:16;;;;;;;3.53;2.72;;;15.10;99.90;;;;;;5121368;27;19980;-79
2021/08/04 06:10:42;;;;;;;;;;;15.10;99.90;;;;;;5112442;27;20043;-79
2021/08/04 06:13:08;;;;;;;3.10;1.90;;;15.20;99.90;;;;;;5122756;27;20018;-79
2021/08/04 06:15:34;;;;;;;;;;;15.20;99.90;;;;;;5117645;27;20118;-79
2021/08/04 06:18:00;;;;;;;2.60;1.90;;;15.20;99.90;;;;;;5118905;27;19920;-78
2021/08/04 06:20:26;;;;;;;2.92;1.80;;;15.30;99.90;;;;;;5131183;27;20083;-76
2021/08/04 06:22:51;;;;;;;;;;;15.30;99.90;;;;;;5138110;27;20051;-78
2021/08/04 06:25:18;;;;;;;3.65;2.40;;;15.30;99.90;;;;;;5130359;27;20063;-79
2021/08/04 06:27:44;;;;;;;2.83;1.92;;;15.40;99.90;;;;;;5081303;28;20196;-78
2021/08/04 06:30:10;;;;;;;3.67;2.03;;;15.40;99.90;;;;;;5118503;27;20135;-77
2021/08/04 06:32:35;;;;;;;;;;;15.50;99.90;;;;;;5136911;27;20038;-78
2021/08/04 06:35:03;;;;;;;;;;;15.50;99.90;;;;;;5125858;27;19973;-79
2021/08/04 06:37:36;;;;;;;3.03;1.98;;;15.50;99.90;;;;;;5121925;27;19942;-78
2021/08/04 06:40:04;;;;;;;2.90;2.03;;;15.60;99.90;;;;;;5120417;27;20035;-79
2021/08/04 06:42:39;;;;;;;;;;;15.60;99.90;;;;;;5119903;27;20050;-79
2021/08/04 06:45:05;;;;;;;2.60;1.80;;;15.60;99.90;;;;;;5126138;27;19945;-78
2021/08/04 06:47:31;;;;;;;3.00;1.90;;;15.70;99.90;;;;;;5132170;27;20516;-78
2021/08/04 06:49:57;;;;;;;2.72;1.90;;;15.70;99.90;;;;;;5122332;27;20088;-78
2021/08/04 06:52:22;;;;;;;;;;;15.80;99.90;;;;;;5130753;27;20098;-78
2021/08/04 06:54:49;;;;;;;3.20;2.05;;;15.90;99.90;;;;;;5129837;27;20334;-78
2021/08/04 06:57:15;;;;;;;3.33;2.17;;;15.90;99.90;;;;;;5126050;27;20039;-78
2021/08/04 06:59:40;;;;;;;;;;;16.00;99.90;;;;;;5125120;27;20039;-78
2021/08/04 07:02:06;;;;;;;3.42;2.00;;;16.00;99.90;;;;;;5126403;27;19981;-77
2021/08/04 07:04:32;;;;;;;;;;;16.10;99.90;;;;;;5127904;27;20075;-78
2021/08/04 07:07:00;;;;;;;3.70;2.10;;;16.20;99.90;;;;;;5115274;27;19959;-78
2021/08/04 07:09:26;;;;;;;3.47;2.15;;;16.30;99.90;;;;;;5115620;27;20114;-78
2021/08/04 07:11:52;;;;;;;;;;;16.40;99.90;;;;;;5115870;27;20035;-78
2021/08/04 07:14:19;;;;;;;4.07;2.15;;;16.40;99.90;;;;;;5114645;27;19926;-78
2021/08/04 07:16:46;;;;;;;3.28;2.05;;;16.50;99.90;;;;;;5113584;27;20034;-78
2021/08/04 07:19:12;;;;;;;3.22;2.00;;;16.70;99.90;;;;;;5124814;27;20081;-78
2021/08/04 07:21:39;;;;;;;3.35;2.10;;;16.80;99.90;;;;;;5120542;27;20492;-78
2021/08/04 07:24:09;;;;;;;4.22;2.00;;;17.00;99.90;;;;;;5124703;27;20062;-78
2021/08/04 07:26:37;;;;;;;4.38;1.90;;;17.10;99.90;;;;;;5118507;27;20042;-77
2021/08/04 07:29:05;;;;;;;3.83;1.58;;;17.20;99.90;;;;;;5117429;27;20038;-78
2021/08/04 07:31:33;;;;;;;3.80;1.80;;;17.40;99.90;;;;;;5127501;27;20395;-78
2021/08/04 07:33:59;;;;;;;2.72;1.67;;;17.70;99.90;;;;;;5119964;27;20040;-78
2021/08/04 07:36:25;;;;;;;;;;;17.90;99.90;;;;;;5125448;27;20046;-78
2021/08/04 07:38:51;;;;;;;3.03;1.75;;;18.20;99.90;;;;;;5122387;27;19923;-78
2021/08/04 07:41:17;;;;;;;2.53;1.50;;;18.50;99.90;;;;;;5117910;27;20063;-78
2021/08/04 07:43:44;;;;;;;;;;;18.90;99.90;;;;;;5122687;27;20085;-78
2021/08/04 07:46:10;;;;;;;3.75;1.65;;;19.20;99.90;;;;;;5126861;27;19915;-78
2021/08/04 07:48:36;;;;;;;2.50;1.50;;;19.50;99.90;;;;;;5120078;27;20039;-79
2021/08/04 07:51:03;;;;;;;2.30;1.40;;;19.60;99.90;;;;;;5118960;28;20043;-78
2021/08/04 07:53:30;;;;;;;2.85;1.48;;;19.70;99.90;;;;;;5120338;27;20043;-78
2021/08/04 07:55:57;;;;;;;4.28;1.60;;;19.70;99.90;;;;;;5131477;27;20118;-78
2021/08/04 07:58:23;;;;;;;2.33;1.40;;;19.70;99.90;;;;;;5132328;27;20145;-78
2021/08/04 08:00:49;;;;;;;4.15;1.55;;;19.70;99.90;;;;;;5126891;27;20035;-79
2021/08/04 08:03:15;;;;;;;3.47;1.40;;;19.70;99.90;;;;;;5130984;27;20035;-78
2021/08/04 08:05:40;;;;;;;3.45;1.50;;;19.60;99.90;;;;;;5124922;27;20047;-77
2021/08/04 08:08:07;;;;;;;;;;;19.40;99.90;;;;;;5127447;27;20120;-78
2021/08/04 08:10:37;;;;;;;3.63;1.52;;;19.60;99.90;;;;;;5123463;27;19919;-79
2021/08/04 08:13:04;;;;;;;3.33;1.70;;;19.70;99.90;;;;;;5129463;27;20091;-79
2021/08/04 08:15:30;;;;;;;2.35;1.45;;;19.90;99.90;;;;;;5122980;27;20046;-79
2021/08/04 08:17:56;;;;;;;4.05;1.50;;;20.10;99.90;;;;;;5124461;27;20385;-79
2021/08/04 08:20:22;;;;;;;3.78;1.70;;;20.20;99.90;;;;;;5128164;27;20050;-79
2021/08/04 08:22:49;;;;;;;3.63;1.70;;;20.40;99.90;;;;;;5132172;27;20455;-79
2021/08/04 08:25:17;;;;;;;3.38;1.60;;;20.40;99.90;;;;;;5122959;27;20477;-78
2021/08/04 08:27:44;;;;;;;3.20;2.05;;;20.40;99.90;;;;;;5125773;27;20044;-79
2021/08/04 08:30:11;;;;;;;3.90;2.03;;;20.30;99.90;;;;;;5125071;27;20498;-79
2021/08/04 08:32:38;;;;;;;2.90;1.70;;;20.20;99.90;;;;;;5128571;27;20042;-79
2021/08/04 08:35:05;;;;;;;2.50;1.50;;;20.20;99.90;;;;;;5125963;27;20074;-79
2021/08/04 08:37:31;;;;;;;2.42;1.67;;;20.20;99.90;;;;;;5126734;27;20811;-79
2021/08/04 08:39:57;;;;;;;2.92;1.60;;;20.30;99.90;;;;;;5125355;27;20043;-79
2021/08/04 08:42:22;;;;;;;;;;;20.20;99.90;;;;;;5125835;27;20043;-79
2021/08/04 08:44:48;;;;;;;4.10;2.00;;;20.20;99.90;;;;;;5129335;27;19945;-79
2021/08/04 08:47:15;;;;;;;3.83;1.90;;;20.10;99.90;;;;;;5129138;27;20088;-80
2021/08/04 08:49:43;;;;;;;2.53;1.73;;;20.20;99.90;;;;;;5129139;27;20043;-80
2021/08/04 08:52:10;;;;;;;2.72;1.80;;;20.30;99.90;;;;;;5131682;27;20114;-79
2021/08/04 08:54:36;;;;;;;7.10;2.00;;;20.30;99.90;;;;;;5129093;27;20031;-79
2021/08/04 08:57:02;;;;;;;3.22;1.88;;;20.30;99.90;;;;;;5130933;27;20027;-79
2021/08/04 08:59:27;;;;;;;4.40;1.90;;;20.40;99.90;;;;;;5119773;27;20046;-78
2021/08/04 09:01:54;;;;;;;5.30;2.13;;;20.30;99.90;;;;;;5114319;27;20040;-79
2021/08/04 09:04:20;;;;;;;3.10;1.83;;;20.10;99.90;;;;;;5111567;28;20042;-79
2021/08/04 09:06:51;;;;;;;3.75;2.25;;;20.00;99.90;;;;;;5126472;27;20046;-79
2021/08/04 09:09:20;;;;;;;3.15;1.92;;;20.20;99.90;;;;;;5114513;27;20032;-78
2021/08/04 09:12:16;;;;;;;3.15;2.20;;;20.50;99.90;;;;;;5133544;27;20598;-79
2021/08/04 09:14:42;;;;;;;4.18;2.55;;;20.80;99.90;;;;;;5121124;27;20039;-79
2021/08/04 09:17:11;;;;;;;4.10;2.28;;;21.00;99.90;;;;;;5123347;27;20525;-78
2021/08/04 09:19:42;;;;;;;3.40;1.73;;;21.40;99.90;;;;;;5126944;27;20038;-79
2021/08/04 09:22:14;;;;;;;3.85;1.50;;;21.60;99.90;;;;;;5117659;27;20079;-78
2021/08/04 09:24:56;;;;;;;2.05;1.40;;;21.80;99.90;;;;;;5131569;27;20094;-78
2021/08/04 09:27:42;;;;;;;2.47;1.73;;;21.90;99.90;;;;;;5126947;27;20035;-79
2021/08/04 09:30:11;;;;;;;3.92;1.90;;;22.00;99.90;;;;;;5125533;27;20031;-78
2021/08/04 09:32:37;;;;;;;2.88;1.80;;;22.10;99.90;;;;;;5130798;27;20539;-79
2021/08/04 09:35:07;;;;;;;4.60;2.28;;;22.10;99.90;;;;;;5124697;27;20043;-77
2021/08/04 09:37:33;;;;;;;3.33;2.33;;;22.00;99.90;;;;;;5117166;27;20111;-77
2021/08/04 09:40:01;;;;;;;3.28;2.22;;;22.00;99.90;;;;;;5118146;27;20095;-78
2021/08/04 09:42:57;;;;;;;3.80;2.40;;;21.80;99.90;;;;;;5114958;27;20432;-78
2021/08/04 09:45:37;;;;;;;3.60;2.25;;;21.80;99.90;;;;;;5109551;27;20063;-78
2021/08/04 09:48:09;;;;;;;2.78;1.88;;;21.80;99.90;;;;;;5130117;27;20247;-78
2021/08/04 09:50:46;;;;;;;3.28;2.03;;;21.90;99.00;;;;;;5118105;27;20039;-78
2021/08/04 09:53:35;;;;;;;3.15;1.90;;;21.80;99.20;;;;;;5130699;27;20039;-77
2021/08/04 09:56:20;;;;;;;6.13;2.22;;;21.80;99.70;;;;;;5125929;27;20035;-78
2021/08/04 09:58:51;;;;;;;3.70;1.73;;;22.00;99.60;;;;;;5112760;27;20043;-78
2021/08/04 10:01:21;;;;;;;4.25;1.98;;;22.10;99.30;;;;;;5127335;27;20110;-79
2021/08/04 10:03:57;;;;;;;2.75;1.92;;;22.20;96.90;;;;;;5114266;27;20039;-78
2021/08/04 10:06:23;;;;;;;4.03;1.90;;;22.20;98.20;;;;;;5123980;27;20134;-78
2021/08/04 10:08:49;;;;;;;3.05;2.13;;;22.40;97.20;;;;;;5128366;27;20464;-78
2021/08/04 10:11:16;;;;;;;4.28;2.20;;;22.50;96.60;;;;;;5120649;27;20038;-78
2021/08/04 10:13:42;;;;;;;4.00;2.00;;;22.70;95.70;;;;;;5111368;27;20058;-78
2021/08/04 10:16:08;;;;;;;3.35;2.00;;;22.80;95.70;;;;;;5121202;27;20038;-78
2021/08/04 10:18:38;;;;;;;4.38;1.73;;;22.90;95.90;;;;;;5126763;27;20031;-78
2021/08/04 10:21:08;;;;;;;4.30;2.00;;;23.00;95.40;;;;;;5122389;27;20043;-77
2021/08/04 10:23:36;;;;;;;2.75;1.80;;;23.10;95.10;;;;;;5125641;27;20035;-78
2021/08/04 10:26:02;;;;;;;3.17;1.80;;;23.30;94.30;;;;;;5123399;27;20092;-78
2021/08/04 10:28:29;;;;;;;2.47;1.70;;;23.30;93.90;;;;;;5122255;27;20149;-78
2021/08/04 10:30:58;;;;;;;3.22;1.63;;;23.50;93.40;;;;;;5118000;27;20040;-78
2021/08/04 10:33:24;;;;;;;2.72;1.55;;;23.70;91.30;;;;;;5119727;27;20046;-78
2021/08/04 10:35:53;;;;;;;2.05;1.40;;;23.60;88.10;;;;;;5116722;27;20111;-79
2021/08/04 10:38:23;;;;;;;2.20;1.50;;;23.30;90.40;;;;;;5129221;27;20043;-78
2021/08/04 10:41:11;;;;;;;2.88;1.63;;;23.30;91.10;;;;;;5121644;27;20042;-78
2021/08/04 10:43:40;;;;;;;2.70;1.60;;;23.50;91.40;;;;;;5111940;27;20069;-78
2021/08/04 10:46:27;;;;;;;2.47;1.65;;;23.70;90.50;;;;;;5121483;27;20518;-78
2021/08/04 10:48:54;;;;;;;3.42;1.55;;;23.80;79.00;;;;;;5122682;27;20561;-78
2021/08/04 10:51:20;;;;;;;2.55;1.50;;;24.00;85.90;;;;;;5110909;27;20070;-78
2021/08/04 10:54:01;;;;;;;2.70;1.70;;;24.20;82.40;;;;;;5116012;27;20436;-78
2021/08/04 10:56:32;;;;;;;3.40;1.50;;;24.20;85.10;;;;;;5143648;27;20065;-78
2021/08/04 10:59:13;;;;;;;3.08;1.60;;;24.30;81.70;;;;;;5124138;27;20047;-78
2021/08/04 11:01:48;;;;;;;2.67;1.70;;;24.30;75.10;;;;;;5124892;27;20035;-78
2021/08/04 11:04:26;;;;;;;2.67;1.77;;;24.00;83.70;;;;;;5125374;27;20499;-78
2021/08/04 11:07:13;;;;;;;5.35;1.88;;;23.80;85.10;;;;;;5124577;27;20793;-78
2021/08/04 11:09:51;;;;;;;2.92;1.50;;;23.80;82.60;;;;;;5123927;27;20118;-78
2021/08/04 11:12:19;;;;;;;2.67;1.77;;;23.80;87.00;;;;;;5122078;27;20065;-78
2021/08/04 11:14:48;;;;;;;4.10;1.83;;;23.90;83.80;;;;;;5128395;27;20043;-78
2021/08/04 11:17:20;;;;;;;2.00;1.30;;;23.90;85.40;;;;;;5123879;27;20146;-77
2021/08/04 11:20:08;;;;;;;3.10;1.73;;;23.80;83.40;;;;;;5119274;27;20102;-78
2021/08/04 11:22:39;;;;;;;3.17;1.58;;;23.30;82.70;;;;;;5125547;27;20055;-78
2021/08/04 11:25:21;;;;;;;2.85;1.60;;;23.00;85.50;;;;;;5119780;27;20036;-78
2021/08/04 11:27:47;;;;;;;3.65;1.92;;;23.10;84.50;;;;;;5126383;27;20066;-77
2021/08/04 11:30:30;;;;;;;2.90;1.73;;;23.30;85.30;;;;;;5128793;27;20077;-78
2021/08/04 11:33:38;;;;;;;3.03;1.60;;;23.40;80.80;;;;;;5126222;27;20071;-78
2021/08/04 11:36:09;;;;;;;4.40;1.85;;;23.40;83.50;;;;;;5128063;27;20679;-78
2021/08/04 11:38:44;;;;;;;2.15;1.30;;;23.50;83.70;;;;;;5114930;27;20040;-78
2021/08/04 11:41:19;;;;;;;2.33;1.58;;;23.60;84.60;;;;;;5130133;27;20043;-79
2021/08/04 11:43:51;;;;;;;2.47;1.50;;;23.80;85.10;;;;;;5131079;27;20046;-79
2021/08/04 11:46:35;;;;;;;2.95;1.83;;;24.00;80.70;;;;;;5132389;27;20039;-78
2021/08/04 11:49:05;;;;;;;3.10;1.92;;;24.00;79.30;;;;;;5132766;27;20039;-79
2021/08/04 11:51:32;;;;;;;2.72;1.55;;;23.80;78.10;;;;;;5116365;27;20054;-77
2021/08/04 11:53:59;;;;;;;3.42;1.70;;;23.70;80.10;;;;;;5119565;27;20063;-79
2021/08/04 11:56:25;;;;;;;3.25;2.00;;;23.80;82.30;;;;;;5132009;27;20046;-79
2021/08/04 11:58:51;;;;;;;2.60;1.77;;;24.00;82.20;;;;;;5141676;27;20038;-79
2021/08/04 12:01:18;;;;;;;3.15;1.70;;;24.00;81.30;;;;;;5131681;27;20038;-79
2021/08/04 12:03:44;;;;;;;2.90;2.28;;;24.10;81.80;;;;;;5130123;27;20437;-79
2021/08/04 12:06:18;;;;;;;3.60;1.83;;;24.30;83.60;;;;;;5130954;27;20096;-76
2021/08/04 12:08:44;;;;;;;3.42;1.50;;;24.60;82.10;;;;;;5128649;27;20046;-78
2021/08/04 12:11:10;;;;;;;2.38;1.50;;;24.80;81.10;;;;;;5131058;27;20056;-78
2021/08/04 12:13:36;;;;;;;3.33;1.63;;;24.90;79.90;;;;;;5128171;27;20039;-77
2021/08/04 12:16:02;;;;;;;2.67;1.70;;;24.90;79.30;;;;;;5116007;27;20495;-78
2021/08/04 12:18:28;;;;;;;3.58;1.92;;;24.80;78.30;;;;;;5112968;27;20392;-78
2021/08/04 12:20:55;;;;;;;2.97;1.70;;;24.80;78.80;;;;;;5124831;27;20039;-79
2021/08/04 12:23:23;;;;;;;2.55;1.50;;;24.90;76.40;;;;;;5130389;27;20485;-78
2021/08/04 12:25:59;;;;;;;4.03;1.70;;;24.70;78.40;;;;;;5130173;27;20035;-79
2021/08/04 12:28:29;;;;;;;;;;;24.70;77.80;;;;;;5132103;27;20047;-78
2021/08/04 12:30:55;;;;;;;3.30;1.80;;;24.70;78.60;;;;;;5130524;27;19958;-78
2021/08/04 12:33:23;;;;;;;2.28;1.60;;;24.80;76.90;;;;;;5113482;27;20482;-78
2021/08/04 12:36:07;;;;;;;2.70;1.60;;;24.70;78.50;;;;;;5126533;27;20020;-78
2021/08/04 12:38:35;;;;;;;2.97;1.75;;;24.60;78.70;;;;;;5121013;27;20496;-78
2021/08/04 12:41:02;;;;;;;2.38;1.52;;;24.60;76.00;;;;;;5129910;27;20047;-79
2021/08/04 12:43:30;;;;;;;2.40;1.63;;;24.30;74.60;;;;;;5131604;27;20046;-79
2021/08/04 12:45:58;;;;;;;2.85;1.60;;;24.20;77.10;;;;;;5127431;27;20056;-79
2021/08/04 12:48:53;;;;;;;3.53;1.45;;;24.30;77.50;;;;;;5122935;27;20479;-78
2021/08/04 12:51:22;;;;;;;2.38;1.60;;;24.50;79.00;;;;;;5067454;27;20047;-79
2021/08/04 12:54:06;;;;;;;2.10;1.45;;;24.70;77.60;;;;;;5120271;27;20036;-78
2021/08/04 12:56:37;;;;;;;3.17;1.98;;;24.70;77.00;;;;;;5125409;27;20040;-79
2021/08/04 12:59:09;;;;;;;2.75;1.70;;;24.90;74.90;;;;;;5124929;27;20039;-79
2021/08/04 13:01:40;;;;;;;3.38;1.58;;;24.90;72.60;;;;;;5121720;27;20119;-79
2021/08/04 13:04:25;;;;;;;3.15;1.63;;;24.60;72.30;;;;;;5098205;27;20054;-78
2021/08/04 13:06:57;;;;;;;2.22;1.50;;;24.70;76.10;;;;;;5127892;27;20093;-78